createdAt,value
2022-12-11T00:01:18.291Z,24.83
2022-12-11T00:03:47.042Z,20.17
2022-12-11T00:06:16.551Z,21.70
2022-12-11T00:08:44.882Z,25.35
2022-12-11T00:11:14.111Z,25.17
2022-12-11T00:13:41.914Z,28.05
2022-12-11T00:16:10.563Z,28.08
2022-12-11T00:18:38.244Z,31.42
2022-12-11T00:21:08.321Z,29.88
2022-12-11T00:23:36.961Z,33.55
2022-12-11T00:26:15.931Z,32.88
2022-12-11T00:28:45.011Z,31.00
2022-12-11T00:31:18.174Z,33.03
2022-12-11T00:33:46.662Z,32.28
2022-12-11T00:36:17.470Z,38.40
2022-12-11T00:38:45.202Z,36.55
2022-12-11T00:41:13.211Z,36.45
2022-12-11T00:43:40.871Z,39.25
2022-12-11T00:46:08.351Z,44.78
2022-12-11T00:48:36.222Z,36.92
2022-12-11T00:51:03.731Z,38.85
2022-12-11T00:53:31.253Z,38.55
2022-12-11T00:55:58.731Z,43.00
2022-12-11T00:58:26.222Z,42.50
2022-12-11T01:00:54.702Z,37.40
2022-12-11T01:03:22.342Z,37.03
2022-12-11T01:05:55.841Z,34.13
2022-12-11T01:08:23.510Z,37.50
2022-12-11T01:10:51.723Z,38.28
2022-12-11T01:13:19.171Z,31.27
2022-12-11T01:15:46.723Z,34.50
2022-12-11T01:18:16.165Z,31.48
2022-12-11T01:20:44.010Z,28.48
2022-12-11T01:23:13.495Z,27.02
2022-12-11T01:25:41.583Z,27.80
2022-12-11T01:28:09.936Z,28.15
2022-12-11T01:30:37.918Z,29.73
2022-12-11T01:33:05.757Z,27.05
2022-12-11T01:35:36.336Z,24.35
2022-12-11T01:38:03.678Z,24.77
2022-12-11T01:40:31.045Z,25.33
2022-12-11T01:42:58.366Z,20.30
2022-12-11T01:45:32.495Z,25.52
2022-12-11T01:48:10.975Z,24.33
2022-12-11T01:51:00.183Z,21.45
2022-12-11T01:53:34.516Z,21.55
2022-12-11T01:56:02.356Z,23.92
2022-12-11T01:58:33.997Z,25.15
2022-12-11T02:01:03.436Z,23.88
2022-12-11T02:03:31.005Z,25.52
2022-12-11T02:06:02.547Z,19.80
2022-12-11T02:08:30.085Z,22.05
2022-12-11T02:11:16.127Z,21.10
2022-12-11T02:14:20.296Z,24.10
2022-12-11T02:16:57.926Z,23.00
2022-12-11T02:19:36.785Z,25.80
2022-12-11T02:22:10.922Z,23.50
2022-12-11T02:25:04.295Z,27.85
2022-12-11T02:27:48.908Z,22.35
2022-12-11T02:30:17.208Z,24.80
2022-12-11T02:32:53.246Z,24.75
2022-12-11T02:35:28.835Z,23.35
2022-12-11T02:38:02.005Z,24.85
2022-12-11T02:40:32.926Z,25.13
2022-12-11T02:43:03.827Z,24.42
2022-12-11T02:45:32.544Z,21.98
2022-12-11T02:48:03.197Z,22.35
2022-12-11T02:50:31.236Z,24.10
2022-12-11T02:52:59.855Z,20.17
2022-12-11T02:55:28.737Z,22.17
2022-12-11T02:58:17.695Z,16.98
2022-12-11T03:00:46.606Z,19.52
2022-12-11T03:03:14.360Z,21.80
2022-12-11T03:05:42.906Z,18.45
2022-12-11T03:08:10.566Z,18.80
2022-12-11T03:10:37.836Z,19.05
2022-12-11T03:13:05.437Z,17.38
2022-12-11T03:15:57.444Z,20.23
2022-12-11T03:18:27.408Z,20.10
2022-12-11T03:21:04.200Z,19.80
2022-12-11T03:23:38.224Z,18.40
2022-12-11T03:28:48.668Z,23.35
2022-12-11T03:31:42.535Z,18.23
2022-12-11T03:34:28.608Z,19.60
2022-12-11T03:36:58.346Z,16.60
2022-12-11T03:39:37.086Z,22.73
2022-12-11T03:42:08.656Z,17.65
2022-12-11T03:44:37.225Z,24.10
2022-12-11T03:47:08.465Z,19.63
2022-12-11T03:49:39.467Z,19.13
2022-12-11T03:52:09.768Z,17.95
2022-12-11T03:54:38.147Z,16.42
2022-12-11T03:57:07.899Z,17.75
2022-12-11T03:59:35.146Z,16.75
2022-12-11T04:02:02.457Z,17.67
2022-12-11T04:04:29.754Z,19.33
2022-12-11T04:06:57.056Z,17.40
2022-12-11T04:09:24.245Z,17.63
2022-12-11T04:11:51.485Z,19.55
2022-12-11T04:14:37.347Z,18.23
2022-12-11T04:17:04.675Z,18.45
2022-12-11T04:19:50.145Z,16.85
2022-12-11T04:22:37.660Z,15.80
2022-12-11T04:25:07.649Z,17.88
2022-12-11T04:27:49.936Z,16.52
2022-12-11T04:30:23.575Z,15.55
2022-12-11T04:32:51.486Z,17.42
2022-12-11T04:35:19.099Z,15.52
2022-12-11T04:37:46.686Z,16.48
2022-12-11T04:40:17.386Z,17.42
2022-12-11T04:42:44.987Z,19.17
2022-12-11T04:45:13.203Z,16.67
2022-12-11T04:47:41.933Z,18.02
2022-12-11T04:50:11.147Z,17.10
2022-12-11T04:52:38.490Z,19.75
2022-12-11T04:55:07.554Z,16.65
2022-12-11T04:57:35.205Z,16.08
2022-12-11T05:00:04.756Z,18.20
2022-12-11T05:02:35.433Z,17.58
2022-12-11T05:05:04.394Z,16.02
2022-12-11T05:07:32.106Z,14.88
2022-12-11T05:09:59.377Z,17.17
2022-12-11T05:12:26.588Z,17.13
2022-12-11T05:14:54.985Z,17.42
2022-12-11T05:17:22.616Z,16.10
2022-12-11T05:19:51.369Z,15.95
2022-12-11T05:22:19.345Z,16.98
2022-12-11T05:24:46.678Z,15.25
2022-12-11T05:27:13.910Z,16.85
2022-12-11T05:29:41.226Z,16.38
2022-12-11T05:32:08.495Z,15.88
2022-12-11T05:34:35.735Z,16.60
2022-12-11T05:37:02.920Z,15.68
2022-12-11T05:39:30.365Z,16.60
2022-12-11T05:41:57.677Z,16.25
2022-12-11T05:44:25.716Z,18.88
2022-12-11T05:46:53.040Z,17.52
2022-12-11T05:49:20.731Z,17.80
2022-12-11T05:51:49.795Z,15.68
2022-12-11T05:54:17.625Z,19.15
2022-12-11T05:56:44.765Z,15.77
2022-12-11T05:59:12.035Z,16.75
2022-12-11T06:01:41.856Z,18.77
2022-12-11T06:04:11.405Z,18.58
2022-12-11T06:06:40.752Z,18.23
2022-12-11T06:09:08.336Z,21.50
2022-12-11T06:11:36.449Z,18.00
2022-12-11T06:14:04.415Z,18.25
2022-12-11T06:16:32.289Z,17.10
2022-12-11T06:18:59.795Z,20.58
2022-12-11T06:21:32.806Z,19.98
2022-12-11T06:24:02.855Z,15.67
2022-12-11T06:26:30.424Z,17.58
2022-12-11T06:28:57.956Z,17.08
2022-12-11T06:31:25.252Z,17.83
2022-12-11T06:33:52.526Z,15.40
2022-12-11T06:36:21.906Z,16.25
2022-12-11T06:38:49.674Z,15.98
2022-12-11T06:41:17.296Z,17.35
2022-12-11T06:43:44.670Z,20.30
2022-12-11T06:46:15.268Z,16.75
2022-12-11T06:48:43.364Z,18.33
2022-12-11T06:51:16.345Z,15.07
2022-12-11T06:53:44.289Z,16.90
2022-12-11T06:56:15.951Z,15.32
2022-12-11T06:58:44.297Z,19.33
2022-12-11T07:01:20.690Z,15.88
2022-12-11T07:03:48.298Z,17.73
2022-12-11T07:06:15.935Z,16.38
2022-12-11T07:08:43.778Z,16.08
2022-12-11T07:11:14.598Z,16.58
2022-12-11T07:13:42.377Z,15.75
2022-12-11T07:16:11.802Z,16.50
2022-12-11T07:18:41.568Z,15.90
2022-12-11T07:21:10.537Z,16.45
2022-12-11T07:23:38.086Z,15.70
2022-12-11T07:26:10.119Z,16.58
2022-12-11T07:28:37.578Z,16.70
2022-12-11T07:31:09.311Z,13.82
2022-12-11T07:33:36.755Z,14.35
2022-12-11T07:36:06.235Z,14.27
2022-12-11T07:38:33.844Z,14.20
2022-12-11T07:41:02.674Z,16.50
2022-12-11T07:43:29.867Z,16.00
2022-12-11T07:46:04.759Z,13.93
2022-12-11T07:48:31.965Z,11.77
2022-12-11T07:51:12.065Z,10.85
2022-12-11T07:53:39.390Z,13.02
2022-12-11T07:56:07.064Z,12.35
2022-12-11T07:58:34.607Z,12.93
2022-12-11T08:01:01.752Z,14.30
2022-12-11T08:03:29.028Z,13.23
2022-12-11T08:05:56.164Z,12.30
2022-12-11T08:08:23.363Z,13.27
2022-12-11T08:10:50.555Z,12.00
2022-12-11T08:15:58.934Z,12.93
2022-12-11T08:18:26.128Z,9.95
2022-12-11T08:20:53.331Z,11.23
2022-12-11T08:23:20.435Z,11.73
2022-12-11T08:25:47.684Z,12.52
2022-12-11T08:28:14.831Z,12.57
2022-12-11T08:30:42.150Z,11.38
2022-12-11T08:33:09.366Z,12.30
2022-12-11T08:35:40.004Z,10.02
2022-12-11T08:38:07.156Z,14.48
2022-12-11T08:40:34.384Z,13.32
2022-12-11T08:43:01.485Z,13.85
2022-12-11T08:45:28.724Z,13.05
2022-12-11T08:47:55.894Z,14.27
2022-12-11T08:50:23.109Z,12.20
2022-12-11T08:52:50.325Z,12.93
2022-12-11T08:55:17.705Z,11.65
2022-12-11T08:57:46.470Z,15.13
2022-12-11T09:00:15.494Z,14.10
2022-12-11T09:02:42.726Z,11.82
2022-12-11T09:05:10.570Z,13.02
2022-12-11T09:07:39.502Z,13.35
2022-12-11T09:10:07.665Z,12.40
2022-12-11T09:12:35.364Z,12.23
2022-12-11T09:15:02.705Z,11.25
2022-12-11T09:17:30.034Z,10.07
2022-12-11T09:19:57.224Z,11.50
2022-12-11T09:22:24.349Z,13.95
2022-12-11T09:24:51.564Z,11.05
2022-12-11T09:27:21.345Z,10.18
2022-12-11T09:29:48.632Z,11.30
2022-12-11T09:32:15.834Z,11.88
2022-12-11T09:34:43.075Z,13.35
2022-12-11T09:37:10.174Z,11.57
2022-12-11T09:39:37.384Z,9.80
2022-12-11T09:45:04.644Z,11.63
2022-12-11T09:47:50.234Z,11.20
2022-12-11T09:50:25.411Z,15.15
2022-12-11T09:53:08.923Z,11.50
2022-12-11T09:56:10.934Z,10.30
2022-12-11T09:58:52.715Z,10.55
2022-12-11T10:01:35.956Z,11.70
2022-12-11T10:04:13.477Z,12.32
2022-12-11T10:07:09.755Z,10.02
2022-12-11T10:10:01.274Z,11.20
2022-12-11T10:13:05.056Z,9.82
2022-12-11T10:15:49.401Z,12.60
2022-12-11T10:18:21.474Z,11.95
2022-12-11T10:20:51.426Z,10.32
2022-12-11T10:23:43.376Z,13.48
2022-12-11T10:26:29.777Z,10.10
2022-12-11T10:29:00.765Z,13.48
2022-12-11T10:31:54.576Z,11.45
2022-12-11T10:34:44.385Z,11.40
2022-12-11T10:37:11.629Z,12.98
2022-12-11T10:39:38.735Z,11.38
2022-12-11T10:42:19.474Z,8.77
2022-12-11T10:45:02.185Z,12.80
2022-12-11T10:47:30.004Z,14.52
2022-12-11T10:50:00.459Z,10.05
2022-12-11T10:52:53.366Z,11.32
2022-12-11T10:55:37.754Z,13.32
2022-12-11T10:58:06.823Z,10.15
2022-12-11T11:00:39.736Z,11.93
2022-12-11T11:03:26.525Z,11.52
2022-12-11T11:06:15.136Z,10.43
2022-12-11T11:08:45.685Z,10.77
2022-12-11T11:11:37.115Z,10.55
2022-12-11T11:14:20.485Z,11.98
2022-12-11T11:16:50.374Z,10.38
2022-12-11T11:19:34.246Z,12.98
2022-12-11T11:22:07.216Z,9.05
2022-12-11T11:24:41.967Z,11.82
2022-12-11T11:27:26.604Z,13.23
2022-12-11T11:29:56.964Z,11.75
2022-12-11T11:35:27.404Z,12.67
2022-12-11T11:38:22.565Z,10.38
2022-12-11T11:41:15.237Z,13.68
2022-12-11T11:43:59.566Z,12.88
2022-12-11T11:46:32.337Z,11.82
2022-12-11T11:49:24.366Z,10.48
2022-12-11T11:51:56.914Z,10.82
2022-12-11T11:55:21.677Z,11.90
2022-12-11T11:58:02.353Z,14.80
2022-12-11T12:00:33.937Z,11.45
2022-12-11T12:03:06.313Z,11.85
2022-12-11T12:05:41.918Z,10.57
2022-12-11T12:08:32.163Z,12.85
2022-12-11T12:11:20.645Z,16.58
2022-12-11T12:13:55.794Z,10.20
2022-12-11T12:17:06.344Z,12.35
2022-12-11T12:20:23.684Z,11.48
2022-12-11T12:22:59.698Z,13.00
2022-12-11T12:25:45.277Z,12.50
2022-12-11T12:28:56.774Z,14.20
2022-12-11T12:31:24.000Z,11.38
2022-12-11T12:34:11.406Z,12.77
2022-12-11T12:37:01.425Z,10.73
2022-12-11T12:39:34.535Z,12.23
2022-12-11T12:42:30.975Z,12.97
2022-12-11T12:45:09.237Z,12.95
2022-12-11T12:47:36.917Z,10.93
2022-12-11T12:50:10.566Z,9.63
2022-12-11T12:52:40.204Z,12.57
2022-12-11T12:55:32.033Z,9.70
2022-12-11T12:58:01.975Z,16.23
2022-12-11T13:00:43.958Z,10.70
2022-12-11T13:03:23.224Z,14.20
2022-12-11T13:06:00.446Z,10.45
2022-12-11T13:08:31.141Z,10.00
2022-12-11T13:11:10.346Z,17.15
2022-12-11T13:13:43.595Z,9.13
2022-12-11T13:16:16.748Z,10.80
2022-12-11T13:18:47.589Z,11.15
2022-12-11T13:21:31.977Z,12.05
2022-12-11T13:26:44.245Z,11.93
2022-12-11T13:29:31.315Z,11.30
2022-12-11T13:32:02.032Z,11.23
2022-12-11T13:34:33.863Z,13.35
2022-12-11T13:37:03.002Z,11.35
2022-12-11T13:39:35.218Z,10.88
2022-12-11T13:42:06.474Z,10.68
2022-12-11T13:44:46.734Z,8.65
2022-12-11T13:47:17.402Z,13.25
2022-12-11T13:49:48.094Z,10.50
2022-12-11T13:52:19.364Z,10.32
2022-12-11T13:54:54.063Z,11.48
2022-12-11T13:57:26.013Z,11.40
2022-12-11T13:59:56.506Z,10.07
2022-12-11T14:02:32.059Z,9.23
2022-12-11T14:05:06.445Z,10.60
2022-12-11T14:07:40.533Z,13.90
2022-12-11T14:10:18.793Z,13.70
2022-12-11T14:15:48.921Z,11.48
2022-12-11T14:18:22.974Z,10.20
2022-12-11T14:21:01.654Z,10.57
2022-12-11T14:23:34.592Z,10.88
2022-12-11T14:26:18.323Z,10.77
2022-12-11T14:28:45.572Z,11.38
2022-12-11T14:31:23.915Z,11.52
2022-12-11T14:34:20.854Z,10.43
2022-12-11T14:36:49.184Z,12.38
2022-12-11T14:39:22.114Z,11.18
2022-12-11T14:42:02.053Z,9.90
2022-12-11T14:44:35.284Z,11.55
2022-12-11T14:47:12.953Z,12.23
2022-12-11T14:49:52.963Z,10.60
2022-12-11T14:52:29.375Z,10.93
2022-12-11T14:55:25.334Z,9.68
2022-12-11T14:57:59.308Z,11.15
2022-12-11T15:03:03.877Z,9.98
2022-12-11T15:05:38.861Z,9.15
2022-12-11T15:08:10.920Z,9.00
2022-12-11T15:10:42.414Z,11.98
2022-12-11T15:13:10.396Z,11.02
2022-12-11T15:18:33.832Z,10.77
2022-12-11T15:21:05.334Z,10.63
2022-12-11T15:23:37.714Z,9.63
2022-12-11T15:26:05.064Z,11.57
2022-12-11T15:31:25.644Z,10.30
2022-12-11T15:33:53.035Z,9.38
2022-12-11T15:36:35.718Z,10.43
2022-12-11T15:39:05.924Z,10.57
2022-12-11T15:41:33.380Z,8.48
2022-12-11T15:44:03.203Z,8.38
2022-12-11T15:46:35.267Z,11.02
2022-12-11T15:49:02.424Z,7.85
2022-12-11T15:51:29.558Z,8.57
2022-12-11T15:57:02.425Z,12.43
2022-12-11T15:59:58.325Z,8.35
2022-12-11T16:02:49.407Z,9.23
2022-12-11T16:05:34.993Z,9.30
2022-12-11T16:08:34.311Z,10.65
2022-12-11T16:13:59.073Z,9.43
2022-12-11T16:16:32.294Z,11.00
2022-12-11T16:19:20.834Z,11.55
2022-12-11T16:22:22.294Z,11.18
2022-12-11T16:25:38.564Z,10.73
2022-12-11T16:28:39.803Z,11.75
2022-12-11T16:31:24.908Z,10.35
2022-12-11T16:33:55.026Z,11.95
2022-12-11T16:39:40.022Z,11.48
2022-12-11T16:42:40.165Z,11.23
2022-12-11T16:45:36.620Z,11.77
2022-12-11T16:48:27.183Z,12.10
2022-12-11T16:50:57.884Z,12.30
2022-12-11T16:54:05.126Z,14.60
2022-12-11T16:56:32.314Z,14.23
2022-12-11T17:00:07.819Z,13.70
2022-12-11T17:02:36.210Z,18.42
2022-12-11T17:05:04.534Z,15.93
2022-12-11T17:07:33.403Z,12.98
2022-12-11T17:10:02.969Z,13.88
2022-12-11T17:12:39.293Z,14.65
2022-12-11T17:15:07.284Z,14.25
2022-12-11T17:17:34.652Z,15.73
2022-12-11T17:20:44.892Z,12.95
2022-12-11T17:23:50.679Z,15.52
2022-12-11T17:26:51.238Z,14.48
2022-12-11T17:29:30.831Z,17.60
2022-12-11T17:31:58.459Z,16.67
2022-12-11T17:34:25.828Z,20.52
2022-12-11T17:36:53.141Z,18.50
2022-12-11T17:39:38.151Z,15.57
2022-12-11T17:42:05.795Z,21.75
2022-12-11T17:44:32.946Z,15.57
2022-12-11T17:47:00.227Z,15.10
2022-12-11T17:49:27.648Z,16.52
2022-12-11T17:51:55.586Z,16.92
2022-12-11T17:54:23.849Z,16.10
2022-12-11T17:56:51.319Z,14.68
2022-12-11T17:59:18.666Z,16.65
2022-12-11T18:01:46.372Z,17.55
2022-12-11T18:04:13.843Z,15.63
2022-12-11T18:06:41.241Z,17.83
2022-12-11T18:09:08.622Z,13.85
2022-12-11T18:11:35.895Z,16.58
2022-12-11T18:14:03.675Z,14.30
2022-12-11T18:16:35.872Z,13.20
2022-12-11T18:19:03.156Z,14.63
2022-12-11T18:21:33.005Z,13.93
2022-12-11T18:24:01.556Z,16.88
2022-12-11T18:26:29.255Z,14.90
2022-12-11T18:28:56.553Z,16.48
2022-12-11T18:31:24.009Z,18.38
2022-12-11T18:33:52.485Z,16.73
2022-12-11T18:36:21.127Z,15.85
2022-12-11T18:38:48.981Z,17.73
2022-12-11T18:41:17.596Z,21.15
2022-12-11T18:43:44.986Z,19.08
2022-12-11T18:46:15.387Z,16.58
2022-12-11T18:48:43.709Z,21.50
2022-12-11T18:51:15.368Z,16.67
2022-12-11T18:53:42.616Z,16.40
2022-12-11T18:56:16.396Z,17.02
2022-12-11T18:58:44.685Z,19.65
2022-12-11T19:01:21.276Z,17.98
2022-12-11T19:03:49.226Z,18.40
2022-12-11T19:06:19.155Z,15.93
2022-12-11T19:08:46.925Z,16.35
2022-12-11T19:11:19.059Z,18.67
2022-12-11T19:13:46.845Z,18.25
2022-12-11T19:16:24.152Z,19.58
2022-12-11T19:18:51.846Z,18.20
2022-12-11T19:21:19.636Z,17.73
2022-12-11T19:23:47.454Z,22.45
2022-12-11T19:26:18.023Z,17.92
2022-12-11T19:28:46.676Z,19.13
2022-12-11T19:31:20.646Z,19.05
2022-12-11T19:33:48.593Z,17.58
2022-12-11T19:36:21.765Z,18.05
2022-12-11T19:38:49.145Z,17.45
2022-12-11T19:41:23.374Z,19.05
2022-12-11T19:43:51.293Z,19.20
2022-12-11T19:46:19.152Z,16.83
2022-12-11T19:48:49.214Z,17.35
2022-12-11T19:51:33.714Z,17.13
2022-12-11T19:54:04.826Z,19.00
2022-12-11T19:56:33.268Z,16.48
2022-12-11T19:59:06.652Z,18.75
2022-12-11T20:01:36.114Z,17.30
2022-12-11T20:04:10.364Z,14.25
2022-12-11T20:06:41.085Z,15.40
2022-12-11T20:09:11.068Z,16.42
2022-12-11T20:11:39.954Z,13.68
2022-12-11T20:14:07.726Z,15.68
2022-12-11T20:17:08.796Z,15.13
2022-12-11T20:19:22.255Z,16.15
2022-12-11T20:21:49.405Z,18.15
2022-12-11T20:24:16.545Z,18.90
2022-12-11T20:26:43.976Z,16.20
2022-12-11T20:29:13.176Z,15.93
2022-12-11T20:31:40.596Z,14.52
2022-12-11T20:34:08.097Z,15.15
2022-12-11T20:36:35.491Z,14.18
2022-12-11T20:39:02.977Z,15.40
2022-12-11T20:41:30.135Z,14.32
2022-12-11T20:43:57.425Z,15.00
2022-12-11T20:46:28.126Z,16.03
2022-12-11T20:48:58.777Z,14.13
2022-12-11T20:51:28.149Z,12.80
2022-12-11T20:53:59.712Z,17.00
2022-12-11T20:56:30.099Z,16.30
2022-12-11T20:58:58.812Z,13.40
2022-12-11T21:01:29.071Z,15.27
2022-12-11T21:03:56.766Z,16.40
2022-12-11T21:06:25.969Z,14.50
2022-12-11T21:08:53.847Z,15.75
2022-12-11T21:11:21.225Z,15.13
2022-12-11T21:13:51.805Z,16.92
2022-12-11T21:16:19.746Z,18.15
2022-12-11T21:18:47.405Z,15.48
2022-12-11T21:21:15.496Z,14.30
2022-12-11T21:23:42.825Z,15.65
2022-12-11T21:26:10.206Z,16.00
2022-12-11T21:28:37.306Z,14.27
2022-12-11T21:31:08.795Z,15.20
2022-12-11T21:33:36.534Z,17.23
2022-12-11T21:36:06.087Z,18.70
2022-12-11T21:38:33.585Z,16.40
2022-12-11T21:41:13.808Z,18.33
2022-12-11T21:44:12.965Z,18.55
2022-12-11T21:46:30.084Z,14.25
2022-12-11T21:48:57.210Z,16.98
2022-12-11T21:51:36.141Z,15.35
2022-12-11T21:54:06.866Z,14.98
2022-12-11T21:56:34.146Z,15.18
2022-12-11T21:59:01.795Z,16.67
2022-12-11T22:01:36.182Z,16.60
2022-12-11T22:04:05.305Z,14.05
2022-12-11T22:06:32.784Z,15.95
2022-12-11T22:09:00.176Z,21.42
2022-12-11T22:11:30.225Z,22.85
2022-12-11T22:13:57.424Z,26.38
2022-12-11T22:16:24.769Z,21.35
2022-12-11T22:18:53.339Z,22.67
2022-12-11T22:21:20.819Z,20.77
2022-12-11T22:23:48.566Z,20.42
2022-12-11T22:26:23.193Z,20.48
2022-12-11T22:28:50.984Z,15.20
2022-12-11T22:31:21.472Z,18.83
2022-12-11T22:33:56.284Z,17.60
2022-12-11T22:36:26.125Z,15.48
2022-12-11T22:38:53.609Z,17.20
2022-12-11T22:41:29.416Z,17.00
2022-12-11T22:43:57.805Z,14.82
2022-12-11T22:46:27.656Z,19.38
2022-12-11T22:48:55.496Z,19.70
2022-12-11T22:51:23.144Z,23.50
2022-12-11T22:53:50.490Z,21.73
2022-12-11T22:56:18.025Z,21.63
2022-12-11T22:58:45.624Z,21.42
2022-12-11T23:01:15.965Z,18.92
2022-12-11T23:03:43.354Z,22.10
2022-12-11T23:06:12.925Z,22.10
2022-12-11T23:08:41.366Z,19.60
2022-12-11T23:11:13.962Z,22.20
2022-12-11T23:13:41.886Z,20.25
2022-12-11T23:16:09.838Z,23.15
2022-12-11T23:18:37.736Z,23.05
2022-12-11T23:21:06.727Z,22.42
2022-12-11T23:23:33.948Z,25.75
2022-12-11T23:26:01.817Z,27.75
2022-12-11T23:28:29.209Z,26.40
2022-12-11T23:30:56.428Z,23.67
2022-12-11T23:33:23.711Z,28.13
2022-12-11T23:35:50.906Z,29.60
2022-12-11T23:41:01.354Z,24.27
2022-12-11T23:43:28.689Z,24.50
2022-12-11T23:45:57.135Z,25.65
2022-12-11T23:48:24.354Z,23.40
2022-12-11T23:50:51.632Z,23.88
2022-12-11T23:56:05.864Z,18.55
2022-12-11T23:58:35.735Z,23.38
